עמוד ראשי
METAR-TAF:

METAR-TAF

שדות תעופה :

Comodoro Rivadavia, ארגנטינה

קו רוחב: 45-47S, קו אורך: 067-30W, גובה: 58מטר

תצפית מזג אוויר נוכחית

הדו"ח נערך לפני 40דקות, בשעה 09:00 UTC
רוח 5קשר מכיוון מערב, משתנה בין דרום-מערב ו צפון/צפון-מערב
טמפרטורת 9 צלסיוס
לחות 49%
לחץ 1018 hPa
ראות 10 קילומטר או יותר
ללא עננים שבסיסם נמוך מ 5000 רגל או קומולונימבוס

METAR: SAVC 270900Z 28005KT 230V340 CAVOK 09/M01 Q1018

זמן: 06:40 (09:40 UTC)

תחזית

הדו"ח נערך לפני 4 שעות ו 25דקות, בשעה 05:15 UTC
תחזית בתוקף מ 27 ב 06 UTC עד 28 ב 06 UTC
רוח 10קשר מכיוון מערב/צפון-מערב
ראות 10 קילומטר או יותר
ללא עננים שבסיסם נמוך מ 5000 רגל או קומולונימבוס
יעשה מ
27 ב 07 UTC עד 27 ב 09 UTC
רוח 20קשר מכיוון מערב/צפון-מערב
ראות 10 קילומטר או יותר
עננים פזורים בגובה 3000רגל

TAF: SAVC 270515Z 2706/2806 29010KT CAVOK TX13/2718Z TN00/2710Z BECMG 2707/2709 29020KT 9999 SCT030

תצפיות ותחזיות מזג אוויר לגבי יותר מ- 4,000 שדות תעופה ברחבי העולם. דוחות METAR ו- TAF.

התחנות הזמינות מסומנות בנקודות צהובות ואדומות על גבי המפה.

העבר את העכבר לנקודה הצבעונית על מנת לראות את שם התחנה.

לאחר מכן, לחץ כדי לראות את תוכן ואת תחזיות מזג האוויר.

כדי לשנות את המפה: לחץ על הכפתורים הירוקים עם הפלוס השחור כדי להתקרב; על הכפתור הירוק עם המקף כדי להתרחק; או בחיצים הירוקים למפות סמוכות.


METAR-TAF: